Terminal Aerodrome Forecast
Issued by NWS Omaha/Valley, NE

Home | Current Version | Previous Version | Graphics & Text | Print | Product List | Glossary On
Versions: 1 2 3 4 5 6 7 8 9 10 11 12 13 14 15 16
000
FTUS43 KOAX 291120
TAFOFK
TAF
KOFK 291120Z 2912/3012 25004KT P6SM BKN100
     FM291400 21007KT P6SM SCT100 SCT250
     FM292000 19008KT P6SM SCT050
     FM300900 18005KT 5SM BR BKN250=

USA.gov is the U.S. government's official web portal to all federal, state and local government web resources and services.